sensor_id;sensor_type;location;lat;lon;timestamp;pressure;altitude;pressure_sealevel;temperature;humidity
596;BME280;19946;49.306;11.350;2023-04-09T00:00:22;97007.38;;;2.32;100.00
596;BME280;19946;49.306;11.350;2023-04-09T00:03:27;97070.53;;;2.88;100.00
596;BME280;19946;49.306;11.350;2023-04-09T00:06:27;96953.81;;;2.10;100.00
596;BME280;19946;49.306;11.350;2023-04-09T00:09:31;96988.53;;;2.35;100.00
596;BME280;19946;49.306;11.350;2023-04-09T00:12:32;96912.84;;;1.93;100.00
596;BME280;19946;49.306;11.350;2023-04-09T00:15:33;97060.72;;;2.79;100.00
596;BME280;19946;49.306;11.350;2023-04-09T00:18:34;96908.16;;;2.03;100.00
596;BME280;19946;49.306;11.350;2023-04-09T00:34:46;97066.97;;;2.92;100.00
596;BME280;19946;49.306;11.350;2023-04-09T00:42:10;97073.41;;;3.01;100.00
596;BME280;19946;49.306;11.350;2023-04-09T00:45:14;96939.94;;;2.16;100.00
596;BME280;19946;49.306;11.350;2023-04-09T00:48:18;96961.44;;;2.31;100.00
596;BME280;19946;49.306;11.350;2023-04-09T00:51:18;97005.53;;;2.54;100.00
596;BME280;19946;49.306;11.350;2023-04-09T00:54:19;96998.28;;;2.45;100.00
596;BME280;19946;49.306;11.350;2023-04-09T00:57:25;97020.53;;;2.62;100.00
596;BME280;19946;49.306;11.350;2023-04-09T01:16:57;97060.38;;;2.86;100.00
596;BME280;19946;49.306;11.350;2023-04-09T01:20:08;97062.28;;;2.81;100.00
596;BME280;19946;49.306;11.350;2023-04-09T01:23:25;97040.25;;;2.79;100.00
596;BME280;19946;49.306;11.350;2023-04-09T01:29:50;97048.59;;;2.82;100.00
596;BME280;19946;49.306;11.350;2023-04-09T01:32:53;97054.38;;;2.87;100.00
596;BME280;19946;49.306;11.350;2023-04-09T01:35:56;97063.28;;;2.79;100.00
596;BME280;19946;49.306;11.350;2023-04-09T01:38:59;97066.16;;;2.71;100.00
596;BME280;19946;49.306;11.350;2023-04-09T01:42:02;97072.31;;;2.67;100.00
596;BME280;19946;49.306;11.350;2023-04-09T01:45:05;97068.31;;;2.41;100.00
596;BME280;19946;49.306;11.350;2023-04-09T01:48:07;97064.59;;;2.08;100.00
596;BME280;19946;49.306;11.350;2023-04-09T01:54:29;97072.31;;;2.06;100.00
596;BME280;19946;49.306;11.350;2023-04-09T01:57:35;96963.72;;;1.15;100.00
596;BME280;19946;49.306;11.350;2023-04-09T02:00:46;97073.72;;;1.73;100.00
596;BME280;19946;49.306;11.350;2023-04-09T02:20:29;96994.84;;;1.45;100.00
596;BME280;19946;49.306;11.350;2023-04-09T02:36:41;96968.63;;;1.20;100.00
596;BME280;19946;49.306;11.350;2023-04-09T02:39:42;97056.91;;;1.45;100.00
596;BME280;19946;49.306;11.350;2023-04-09T02:42:47;97001.91;;;0.95;100.00
596;BME280;19946;49.306;11.350;2023-04-09T02:45:48;96987.22;;;0.78;100.00
596;BME280;19946;49.306;11.350;2023-04-09T02:49:07;96990.31;;;0.64;100.00
596;BME280;19946;49.306;11.350;2023-04-09T02:52:09;96979.50;;;0.58;100.00
596;BME280;19946;49.306;11.350;2023-04-09T02:55:13;97081.69;;;1.20;100.00
596;BME280;19946;49.306;11.350;2023-04-09T02:58:14;96945.63;;;0.32;100.00
596;BME280;19946;49.306;11.350;2023-04-09T03:01:18;97077.00;;;1.09;100.00
596;BME280;19946;49.306;11.350;2023-04-09T03:04:20;97017.72;;;0.58;100.00
596;BME280;19946;49.306;11.350;2023-04-09T03:14:16;96980.47;;;0.32;100.00
596;BME280;19946;49.306;11.350;2023-04-09T03:17:18;96934.41;;;0.13;100.00
596;BME280;19946;49.306;11.350;2023-04-09T03:20:21;97001.66;;;0.56;100.00
596;BME280;19946;49.306;11.350;2023-04-09T03:23:26;97073.91;;;1.01;100.00
596;BME280;19946;49.306;11.350;2023-04-09T03:26:27;97015.91;;;0.61;100.00
596;BME280;19946;49.306;11.350;2023-04-09T03:29:27;96975.13;;;0.38;100.00
596;BME280;19946;49.306;11.350;2023-04-09T03:32:29;97043.88;;;0.86;100.00
596;BME280;19946;49.306;11.350;2023-04-09T03:35:31;97042.31;;;0.82;100.00
596;BME280;19946;49.306;11.350;2023-04-09T03:45:07;97100.13;;;1.28;100.00
596;BME280;19946;49.306;11.350;2023-04-09T03:48:16;97005.56;;;0.88;100.00
596;BME280;19946;49.306;11.350;2023-04-09T03:51:18;97002.13;;;0.89;100.00
596;BME280;19946;49.306;11.350;2023-04-09T03:55:01;97087.44;;;1.49;100.00
596;BME280;19946;49.306;11.350;2023-04-09T03:58:04;97004.06;;;1.05;100.00
596;BME280;19946;49.306;11.350;2023-04-09T04:11:05;97097.63;;;1.03;100.00
596;BME280;19946;49.306;11.350;2023-04-09T04:14:26;97091.81;;;1.00;100.00
596;BME280;19946;49.306;11.350;2023-04-09T04:17:34;96999.88;;;0.34;100.00
596;BME280;19946;49.306;11.350;2023-04-09T04:20:40;97098.13;;;0.90;100.00
596;BME280;19946;49.306;11.350;2023-04-09T04:33:38;97102.00;;;0.53;100.00
596;BME280;19946;49.306;11.350;2023-04-09T04:36:46;97023.97;;;0.01;100.00
596;BME280;19946;49.306;11.350;2023-04-09T04:39:51;97086.28;;;0.16;100.00
596;BME280;19946;49.306;11.350;2023-04-09T04:42:52;97033.47;;;-0.04;100.00
596;BME280;19946;49.306;11.350;2023-04-09T04:45:53;97015.81;;;-0.33;100.00
596;BME280;19946;49.306;11.350;2023-04-09T04:49:04;97104.94;;;0.16;100.00
596;BME280;19946;49.306;11.350;2023-04-09T04:52:10;97022.59;;;-0.34;100.00
596;BME280;19946;49.306;11.350;2023-04-09T04:55:14;97011.09;;;-0.46;100.00
596;BME280;19946;49.306;11.350;2023-04-09T04:58:16;97035.81;;;-0.49;100.00
596;BME280;19946;49.306;11.350;2023-04-09T05:01:22;96991.94;;;-0.84;100.00
596;BME280;19946;49.306;11.350;2023-04-09T05:04:24;97045.78;;;-0.43;100.00
596;BME280;19946;49.306;11.350;2023-04-09T05:07:28;97111.22;;;0.06;100.00
596;BME280;19946;49.306;11.350;2023-04-09T05:10:31;97015.59;;;-0.54;100.00
596;BME280;19946;49.306;11.350;2023-04-09T05:13:33;97048.81;;;-0.32;100.00
596;BME280;19946;49.306;11.350;2023-04-09T05:16:37;97023.56;;;-0.38;100.00
596;BME280;19946;49.306;11.350;2023-04-09T05:19:42;97100.31;;;0.27;100.00
596;BME280;19946;49.306;11.350;2023-04-09T05:22:44;97118.00;;;0.32;100.00
596;BME280;19946;49.306;11.350;2023-04-09T05:25:47;97107.00;;;0.31;100.00
596;BME280;19946;49.306;11.350;2023-04-09T05:29:02;97007.91;;;-0.26;100.00
596;BME280;19946;49.306;11.350;2023-04-09T05:32:03;96990.03;;;-0.24;100.00
596;BME280;19946;49.306;11.350;2023-04-09T05:35:09;97073.66;;;0.38;100.00
596;BME280;19946;49.306;11.350;2023-04-09T05:38:17;97110.19;;;0.61;100.00
596;BME280;19946;49.306;11.350;2023-04-09T05:41:23;97035.44;;;0.13;100.00
596;BME280;19946;49.306;11.350;2023-04-09T05:44:47;97014.56;;;0.28;100.00
596;BME280;19946;49.306;11.350;2023-04-09T05:51:08;97042.88;;;0.67;100.00
596;BME280;19946;49.306;11.350;2023-04-09T05:54:12;97015.56;;;0.47;100.00
596;BME280;19946;49.306;11.350;2023-04-09T06:07:05;97111.25;;;1.71;100.00
596;BME280;19946;49.306;11.350;2023-04-09T06:17:16;97110.53;;;2.30;100.00
596;BME280;19946;49.306;11.350;2023-04-09T06:20:17;97060.47;;;2.05;100.00
596;BME280;19946;49.306;11.350;2023-04-09T06:23:21;97021.94;;;1.90;100.00
596;BME280;19946;49.306;11.350;2023-04-09T06:39:37;97013.06;;;2.18;100.00
596;BME280;19946;49.306;11.350;2023-04-09T06:42:40;97135.56;;;3.03;100.00
596;BME280;19946;49.306;11.350;2023-04-09T06:45:52;97030.22;;;2.55;100.00
596;BME280;19946;49.306;11.350;2023-04-09T06:48:53;97035.31;;;2.55;100.00
596;BME280;19946;49.306;11.350;2023-04-09T06:51:54;97142.16;;;3.46;100.00
596;BME280;19946;49.306;11.350;2023-04-09T06:54:55;97147.81;;;3.52;100.00
596;BME280;19946;49.306;11.350;2023-04-09T07:01:23;97149.59;;;3.88;100.00
596;BME280;19946;49.306;11.350;2023-04-09T07:05:01;97144.47;;;3.88;100.00
596;BME280;19946;49.306;11.350;2023-04-09T07:08:08;97155.88;;;4.17;100.00
596;BME280;19946;49.306;11.350;2023-04-09T07:14:26;97052.78;;;3.58;100.00
596;BME280;19946;49.306;11.350;2023-04-09T07:17:30;97008.19;;;3.45;100.00
596;BME280;19946;49.306;11.350;2023-04-09T07:20:35;97120.53;;;4.23;100.00
596;BME280;19946;49.306;11.350;2023-04-09T07:23:37;97157.34;;;4.74;100.00
596;BME280;19946;49.306;11.350;2023-04-09T07:26:41;97084.03;;;4.18;100.00
596;BME280;19946;49.306;11.350;2023-04-09T07:29:43;97124.00;;;4.57;100.00
596;BME280;19946;49.306;11.350;2023-04-09T07:32:44;97030.69;;;4.09;100.00
596;BME280;19946;49.306;11.350;2023-04-09T07:35:45;97074.72;;;4.67;100.00
596;BME280;19946;49.306;11.350;2023-04-09T07:38:46;97077.59;;;4.94;100.00
596;BME280;19946;49.306;11.350;2023-04-09T07:41:49;97064.44;;;5.00;100.00
596;BME280;19946;49.306;11.350;2023-04-09T07:44:50;97175.25;;;5.57;100.00
596;BME280;19946;49.306;11.350;2023-04-09T07:47:53;97171.13;;;5.70;100.00
596;BME280;19946;49.306;11.350;2023-04-09T07:50:54;97120.88;;;5.65;100.00
596;BME280;19946;49.306;11.350;2023-04-09T07:53:55;97099.25;;;5.69;100.00
596;BME280;19946;49.306;11.350;2023-04-09T07:56:56;97069.41;;;5.66;100.00
596;BME280;19946;49.306;11.350;2023-04-09T07:59:57;97098.47;;;6.14;100.00
596;BME280;19946;49.306;11.350;2023-04-09T08:02:59;97075.41;;;6.12;100.00
596;BME280;19946;49.306;11.350;2023-04-09T08:09:20;97147.09;;;6.48;100.00
596;BME280;19946;49.306;11.350;2023-04-09T08:12:21;97073.69;;;5.97;100.00
596;BME280;19946;49.306;11.350;2023-04-09T08:18:55;97085.44;;;6.47;100.00
596;BME280;19946;49.306;11.350;2023-04-09T08:21:56;97154.25;;;7.16;100.00
596;BME280;19946;49.306;11.350;2023-04-09T08:24:58;97114.88;;;7.69;100.00
596;BME280;19946;49.306;11.350;2023-04-09T08:28:01;97069.81;;;7.62;100.00
596;BME280;19946;49.306;11.350;2023-04-09T08:31:02;97100.47;;;7.66;100.00
596;BME280;19946;49.306;11.350;2023-04-09T08:34:04;97073.56;;;7.44;100.00
596;BME280;19946;49.306;11.350;2023-04-09T08:37:05;97078.38;;;7.21;100.00
596;BME280;19946;49.306;11.350;2023-04-09T08:40:07;97086.19;;;7.61;100.00
596;BME280;19946;49.306;11.350;2023-04-09T08:56:16;97177.66;;;8.50;100.00
596;BME280;19946;49.306;11.350;2023-04-09T08:59:17;97159.97;;;8.84;100.00
596;BME280;19946;49.306;11.350;2023-04-09T09:06:02;97169.88;;;8.90;100.00
596;BME280;19946;49.306;11.350;2023-04-09T09:09:07;97027.28;;;8.21;100.00
596;BME280;19946;49.306;11.350;2023-04-09T09:12:08;97040.66;;;8.53;100.00
596;BME280;19946;49.306;11.350;2023-04-09T09:25:00;97089.66;;;7.74;100.00
596;BME280;19946;49.306;11.350;2023-04-09T09:28:10;97144.97;;;8.89;100.00
596;BME280;19946;49.306;11.350;2023-04-09T09:37:44;97138.13;;;9.87;100.00
596;BME280;19946;49.306;11.350;2023-04-09T09:40:45;97152.78;;;10.36;100.00
596;BME280;19946;49.306;11.350;2023-04-09T09:43:46;97147.84;;;10.20;92.90
596;BME280;19946;49.306;11.350;2023-04-09T09:46:47;97131.47;;;9.72;99.36
596;BME280;19946;49.306;11.350;2023-04-09T09:59:40;97143.28;;;10.24;96.77
596;BME280;19946;49.306;11.350;2023-04-09T10:02:47;97150.78;;;10.75;100.00
596;BME280;19946;49.306;11.350;2023-04-09T10:05:53;97139.59;;;10.85;83.44
596;BME280;19946;49.306;11.350;2023-04-09T10:08:56;97140.66;;;10.00;75.46
596;BME280;19946;49.306;11.350;2023-04-09T11:01:20;97120.75;;;10.83;62.19
596;BME280;19946;49.306;11.350;2023-04-09T11:04:21;97103.72;;;10.92;57.36
596;BME280;19946;49.306;11.350;2023-04-09T11:07:23;97098.06;;;11.09;64.53
596;BME280;19946;49.306;11.350;2023-04-09T11:13:41;97063.84;;;10.48;56.65
596;BME280;19946;49.306;11.350;2023-04-09T11:19:58;97050.69;;;10.85;56.15
596;BME280;19946;49.306;11.350;2023-04-09T11:22:59;97085.41;;;11.60;56.04
596;BME280;19946;49.306;11.350;2023-04-09T11:26:00;97074.38;;;12.54;60.61
596;BME280;19946;49.306;11.350;2023-04-09T11:29:05;97048.19;;;12.25;57.99
596;BME280;19946;49.306;11.350;2023-04-09T11:32:08;97077.94;;;12.53;53.89
596;BME280;19946;49.306;11.350;2023-04-09T11:41:42;97086.63;;;11.45;60.29
596;BME280;19946;49.306;11.350;2023-04-09T11:44:46;97049.69;;;11.75;56.06
596;BME280;19946;49.306;11.350;2023-04-09T11:47:48;97056.69;;;12.27;64.64
596;BME280;19946;49.306;11.350;2023-04-09T11:50:49;97085.38;;;12.26;56.39
596;BME280;19946;49.306;11.350;2023-04-09T12:00:23;97049.75;;;12.79;56.44
596;BME280;19946;49.306;11.350;2023-04-09T12:10:06;97093.09;;;12.16;53.67
596;BME280;19946;49.306;11.350;2023-04-09T12:23:18;97059.47;;;12.56;59.17
596;BME280;19946;49.306;11.350;2023-04-09T12:29:50;97060.63;;;12.84;61.33
596;BME280;19946;49.306;11.350;2023-04-09T12:32:52;97055.03;;;12.47;57.65
596;BME280;19946;49.306;11.350;2023-04-09T12:35:52;97072.31;;;11.62;57.33
596;BME280;19946;49.306;11.350;2023-04-09T13:15:28;97060.69;;;12.73;56.34
596;BME280;19946;49.306;11.350;2023-04-09T13:18:31;97047.13;;;12.69;55.30
596;BME280;19946;49.306;11.350;2023-04-09T13:21:31;96998.56;;;12.19;58.40
596;BME280;19946;49.306;11.350;2023-04-09T13:24:32;97006.53;;;12.78;57.93
596;BME280;19946;49.306;11.350;2023-04-09T13:27:33;97039.84;;;13.14;60.32
596;BME280;19946;49.306;11.350;2023-04-09T13:30:34;97021.22;;;12.58;58.40
596;BME280;19946;49.306;11.350;2023-04-09T13:33:34;97044.09;;;11.91;56.59
596;BME280;19946;49.306;11.350;2023-04-09T14:16:09;97005.91;;;11.16;57.10
596;BME280;19946;49.306;11.350;2023-04-09T14:19:09;96932.44;;;11.38;56.34
596;BME280;19946;49.306;11.350;2023-04-09T14:22:10;96950.78;;;11.57;54.36
596;BME280;19946;49.306;11.350;2023-04-09T14:25:10;97007.34;;;12.27;55.74
596;BME280;19946;49.306;11.350;2023-04-09T14:38:02;96989.09;;;12.59;49.81
596;BME280;19946;49.306;11.350;2023-04-09T14:41:03;96989.91;;;12.90;50.56
596;BME280;19946;49.306;11.350;2023-04-09T14:44:04;96975.59;;;13.05;52.01
596;BME280;19946;49.306;11.350;2023-04-09T14:47:04;96978.28;;;12.13;53.80
596;BME280;19946;49.306;11.350;2023-04-09T14:50:05;96987.41;;;12.28;54.01
596;BME280;19946;49.306;11.350;2023-04-09T14:53:06;96954.00;;;11.82;53.43
596;BME280;19946;49.306;11.350;2023-04-09T15:02:39;96983.22;;;10.97;57.20
596;BME280;19946;49.306;11.350;2023-04-09T15:05:40;96994.28;;;10.88;58.41
596;BME280;19946;49.306;11.350;2023-04-09T15:08:40;96992.31;;;10.70;56.19
596;BME280;19946;49.306;11.350;2023-04-09T15:11:40;96996.16;;;10.75;56.56
596;BME280;19946;49.306;11.350;2023-04-09T15:14:42;96940.84;;;10.65;56.60
596;BME280;19946;49.306;11.350;2023-04-09T15:17:42;96968.34;;;11.11;55.40
596;BME280;19946;49.306;11.350;2023-04-09T15:20:43;96990.09;;;11.42;55.54
596;BME280;19946;49.306;11.350;2023-04-09T15:26:59;96984.44;;;11.80;56.29
596;BME280;19946;49.306;11.350;2023-04-09T15:30:00;96982.84;;;11.67;55.77
596;BME280;19946;49.306;11.350;2023-04-09T15:33:01;96978.03;;;11.52;57.50
596;BME280;19946;49.306;11.350;2023-04-09T15:36:01;96978.63;;;11.55;57.38
596;BME280;19946;49.306;11.350;2023-04-09T15:39:02;96985.34;;;11.47;56.50
596;BME280;19946;49.306;11.350;2023-04-09T15:45:19;96973.47;;;11.44;53.64
596;BME280;19946;49.306;11.350;2023-04-09T15:48:20;96992.91;;;11.39;57.48
596;BME280;19946;49.306;11.350;2023-04-09T16:30:43;97001.97;;;9.63;75.90
596;BME280;19946;49.306;11.350;2023-04-09T16:40:17;96990.09;;;9.36;83.64
596;BME280;19946;49.306;11.350;2023-04-09T16:56:31;96932.53;;;8.98;90.49
596;BME280;19946;49.306;11.350;2023-04-09T16:59:37;96931.13;;;8.94;96.42
596;BME280;19946;49.306;11.350;2023-04-09T17:05:57;97038.72;;;9.55;94.10
596;BME280;19946;49.306;11.350;2023-04-09T17:08:58;96941.66;;;8.91;94.29
596;BME280;19946;49.306;11.350;2023-04-09T17:11:59;96898.38;;;8.58;92.29
596;BME280;19946;49.306;11.350;2023-04-09T17:15:00;96889.81;;;8.45;91.08
596;BME280;19946;49.306;11.350;2023-04-09T17:18:01;96927.56;;;8.71;88.07
596;BME280;19946;49.306;11.350;2023-04-09T17:21:04;96882.72;;;8.35;92.35
596;BME280;19946;49.306;11.350;2023-04-09T17:24:07;96987.00;;;9.07;87.07
596;BME280;19946;49.306;11.350;2023-04-09T17:33:44;97049.66;;;8.86;91.18
596;BME280;19946;49.306;11.350;2023-04-09T17:36:49;97048.91;;;8.84;89.18
596;BME280;19946;49.306;11.350;2023-04-09T17:39:55;97037.38;;;8.64;86.67
596;BME280;19946;49.306;11.350;2023-04-09T17:42:57;97049.44;;;8.63;87.94
596;BME280;19946;49.306;11.350;2023-04-09T17:45:58;97033.31;;;8.47;94.02
596;BME280;19946;49.306;11.350;2023-04-09T17:48:58;96991.25;;;8.07;91.82
596;BME280;19946;49.306;11.350;2023-04-09T17:52:00;97047.75;;;8.37;95.81
596;BME280;19946;49.306;11.350;2023-04-09T17:55:05;97050.94;;;8.28;98.32
596;BME280;19946;49.306;11.350;2023-04-09T17:58:06;97017.75;;;7.96;100.00
596;BME280;19946;49.306;11.350;2023-04-09T18:01:06;97026.47;;;7.81;100.00
596;BME280;19946;49.306;11.350;2023-04-09T18:04:07;97048.66;;;7.84;100.00
596;BME280;19946;49.306;11.350;2023-04-09T18:07:07;97060.38;;;7.75;100.00
596;BME280;19946;49.306;11.350;2023-04-09T18:10:08;97045.19;;;7.70;100.00
596;BME280;19946;49.306;11.350;2023-04-09T18:13:08;97044.22;;;7.59;100.00
596;BME280;19946;49.306;11.350;2023-04-09T18:16:10;97053.81;;;7.57;100.00
596;BME280;19946;49.306;11.350;2023-04-09T18:19:11;97039.31;;;7.42;100.00
596;BME280;19946;49.306;11.350;2023-04-09T18:22:11;97071.06;;;7.42;100.00
596;BME280;19946;49.306;11.350;2023-04-09T18:25:12;97070.84;;;6.90;100.00
596;BME280;19946;49.306;11.350;2023-04-09T18:28:18;97091.91;;;6.24;100.00
596;BME280;19946;49.306;11.350;2023-04-09T18:31:19;97080.63;;;6.11;100.00
596;BME280;19946;49.306;11.350;2023-04-09T18:34:26;97074.00;;;5.61;100.00
596;BME280;19946;49.306;11.350;2023-04-09T18:37:27;96930.06;;;4.70;100.00
596;BME280;19946;49.306;11.350;2023-04-09T18:40:28;96978.47;;;4.76;100.00
596;BME280;19946;49.306;11.350;2023-04-09T18:43:28;96978.59;;;4.42;100.00
596;BME280;19946;49.306;11.350;2023-04-09T18:46:30;96989.97;;;4.20;100.00
596;BME280;19946;49.306;11.350;2023-04-09T18:49:32;97088.50;;;4.82;100.00
596;BME280;19946;49.306;11.350;2023-04-09T18:52:33;97110.69;;;4.83;100.00
596;BME280;19946;49.306;11.350;2023-04-09T18:55:39;97062.63;;;4.54;100.00
596;BME280;19946;49.306;11.350;2023-04-09T18:58:40;96958.03;;;3.58;100.00
596;BME280;19946;49.306;11.350;2023-04-09T19:01:41;97109.66;;;4.35;100.00
596;BME280;19946;49.306;11.350;2023-04-09T19:04:42;97029.44;;;3.64;100.00
596;BME280;19946;49.306;11.350;2023-04-09T19:07:44;97017.22;;;3.52;100.00
596;BME280;19946;49.306;11.350;2023-04-09T19:10:45;96982.53;;;3.28;100.00
596;BME280;19946;49.306;11.350;2023-04-09T19:13:49;97020.66;;;3.34;100.00
596;BME280;19946;49.306;11.350;2023-04-09T19:16:54;96957.38;;;2.83;100.00
596;BME280;19946;49.306;11.350;2023-04-09T19:19:58;96969.75;;;2.92;100.00
596;BME280;19946;49.306;11.350;2023-04-09T19:22:59;96956.81;;;2.76;100.00
596;BME280;19946;49.306;11.350;2023-04-09T19:26:01;97024.88;;;3.16;100.00
596;BME280;19946;49.306;11.350;2023-04-09T19:29:05;97080.56;;;3.49;100.00
596;BME280;19946;49.306;11.350;2023-04-09T19:32:07;97125.22;;;3.79;100.00
596;BME280;19946;49.306;11.350;2023-04-09T19:35:11;96966.22;;;2.76;100.00
596;BME280;19946;49.306;11.350;2023-04-09T19:38:12;96987.72;;;2.72;100.00
596;BME280;19946;49.306;11.350;2023-04-09T19:41:15;96984.81;;;2.61;100.00
596;BME280;19946;49.306;11.350;2023-04-09T19:44:18;96960.66;;;2.29;100.00
596;BME280;19946;49.306;11.350;2023-04-09T19:47:20;96974.97;;;2.33;100.00
596;BME280;19946;49.306;11.350;2023-04-09T19:50:21;97014.44;;;2.46;100.00
596;BME280;19946;49.306;11.350;2023-04-09T19:53:39;97156.00;;;3.23;100.00
596;BME280;19946;49.306;11.350;2023-04-09T19:56:42;96998.13;;;2.09;100.00
596;BME280;19946;49.306;11.350;2023-04-09T19:59:42;97067.84;;;2.52;100.00
596;BME280;19946;49.306;11.350;2023-04-09T20:02:43;97046.53;;;2.33;100.00
596;BME280;19946;49.306;11.350;2023-04-09T20:05:46;97140.69;;;3.03;100.00
596;BME280;19946;49.306;11.350;2023-04-09T20:08:47;97049.97;;;2.52;100.00
596;BME280;19946;49.306;11.350;2023-04-09T20:11:56;96980.44;;;2.44;100.00
596;BME280;19946;49.306;11.350;2023-04-09T20:15:03;97058.59;;;3.07;100.00
596;BME280;19946;49.306;11.350;2023-04-09T20:18:07;97003.19;;;3.06;100.00
596;BME280;19946;49.306;11.350;2023-04-09T20:21:08;96969.03;;;3.07;100.00
596;BME280;19946;49.306;11.350;2023-04-09T20:24:15;97033.56;;;3.50;100.00
596;BME280;19946;49.306;11.350;2023-04-09T20:27:17;97164.03;;;4.25;100.00
596;BME280;19946;49.306;11.350;2023-04-09T20:30:18;97037.78;;;3.51;100.00
596;BME280;19946;49.306;11.350;2023-04-09T20:33:19;97050.00;;;2.89;100.00
596;BME280;19946;49.306;11.350;2023-04-09T20:36:20;97137.38;;;3.38;100.00
596;BME280;19946;49.306;11.350;2023-04-09T20:39:21;96982.25;;;2.61;100.00
596;BME280;19946;49.306;11.350;2023-04-09T20:42:25;97179.25;;;3.75;100.00
596;BME280;19946;49.306;11.350;2023-04-09T20:45:26;97024.81;;;3.18;100.00
596;BME280;19946;49.306;11.350;2023-04-09T20:48:30;97156.94;;;4.13;100.00
596;BME280;19946;49.306;11.350;2023-04-09T20:51:33;97154.53;;;4.10;100.00
596;BME280;19946;49.306;11.350;2023-04-09T20:54:34;96997.72;;;2.95;100.00
596;BME280;19946;49.306;11.350;2023-04-09T20:57:35;97077.78;;;3.53;100.00
596;BME280;19946;49.306;11.350;2023-04-09T21:00:36;97031.56;;;3.02;100.00
596;BME280;19946;49.306;11.350;2023-04-09T21:03:37;97081.91;;;3.20;100.00
596;BME280;19946;49.306;11.350;2023-04-09T21:06:39;97150.44;;;3.51;100.00
596;BME280;19946;49.306;11.350;2023-04-09T21:09:40;97019.97;;;2.55;100.00
596;BME280;19946;49.306;11.350;2023-04-09T21:12:41;97063.75;;;2.87;100.00
596;BME280;19946;49.306;11.350;2023-04-09T21:15:41;96985.97;;;2.35;100.00
596;BME280;19946;49.306;11.350;2023-04-09T21:18:42;97152.94;;;3.52;100.00
596;BME280;19946;49.306;11.350;2023-04-09T21:21:44;97144.41;;;3.71;100.00
596;BME280;19946;49.306;11.350;2023-04-09T21:24:45;97010.59;;;2.93;100.00
596;BME280;19946;49.306;11.350;2023-04-09T21:27:46;97106.22;;;3.66;100.00
596;BME280;19946;49.306;11.350;2023-04-09T21:30:46;97156.09;;;4.12;100.00
596;BME280;19946;49.306;11.350;2023-04-09T21:34:25;97154.38;;;4.13;100.00
596;BME280;19946;49.306;11.350;2023-04-09T21:37:25;97013.44;;;2.87;100.00
596;BME280;19946;49.306;11.350;2023-04-09T21:40:28;97053.72;;;2.82;100.00
596;BME280;19946;49.306;11.350;2023-04-09T21:43:29;97039.44;;;2.78;100.00
596;BME280;19946;49.306;11.350;2023-04-09T21:46:30;97117.97;;;3.14;100.00
596;BME280;19946;49.306;11.350;2023-04-09T21:49:31;97167.47;;;3.33;100.00
596;BME280;19946;49.306;11.350;2023-04-09T21:52:31;97048.56;;;2.45;100.00
596;BME280;19946;49.306;11.350;2023-04-09T21:55:32;97020.72;;;2.18;100.00
596;BME280;19946;49.306;11.350;2023-04-09T21:58:35;97088.44;;;2.69;100.00
596;BME280;19946;49.306;11.350;2023-04-09T22:01:36;97093.44;;;2.71;100.00
596;BME280;19946;49.306;11.350;2023-04-09T22:04:36;97069.50;;;2.53;100.00
596;BME280;19946;49.306;11.350;2023-04-09T22:07:41;96991.50;;;2.05;100.00
596;BME280;19946;49.306;11.350;2023-04-09T22:10:42;97108.34;;;2.81;100.00
596;BME280;19946;49.306;11.350;2023-04-09T22:13:43;97181.97;;;3.14;100.00
596;BME280;19946;49.306;11.350;2023-04-09T22:16:44;97049.47;;;2.44;100.00
596;BME280;19946;49.306;11.350;2023-04-09T22:19:45;96991.59;;;2.23;100.00
596;BME280;19946;49.306;11.350;2023-04-09T22:22:46;97094.13;;;2.94;100.00
596;BME280;19946;49.306;11.350;2023-04-09T22:26:07;96973.28;;;2.13;100.00
596;BME280;19946;49.306;11.350;2023-04-09T22:29:09;97001.38;;;2.33;100.00
596;BME280;19946;49.306;11.350;2023-04-09T22:32:11;97018.91;;;2.41;100.00
596;BME280;19946;49.306;11.350;2023-04-09T22:35:12;97060.41;;;2.66;100.00
596;BME280;19946;49.306;11.350;2023-04-09T22:38:17;97041.31;;;2.15;100.00
596;BME280;19946;49.306;11.350;2023-04-09T22:41:18;96994.19;;;1.62;100.00
596;BME280;19946;49.306;11.350;2023-04-09T22:44:38;97159.59;;;2.60;100.00
596;BME280;19946;49.306;11.350;2023-04-09T22:47:40;97121.25;;;2.17;100.00
596;BME280;19946;49.306;11.350;2023-04-09T22:50:42;97019.31;;;1.29;100.00
596;BME280;19946;49.306;11.350;2023-04-09T22:57:00;97001.66;;;1.23;100.00
596;BME280;19946;49.306;11.350;2023-04-09T23:00:03;97059.63;;;1.63;100.00
596;BME280;19946;49.306;11.350;2023-04-09T23:03:04;97123.31;;;2.09;100.00
596;BME280;19946;49.306;11.350;2023-04-09T23:06:05;97013.28;;;1.52;100.00
596;BME280;19946;49.306;11.350;2023-04-09T23:09:06;96979.78;;;1.39;100.00
596;BME280;19946;49.306;11.350;2023-04-09T23:12:07;96995.56;;;1.69;100.00
596;BME280;19946;49.306;11.350;2023-04-09T23:15:08;96996.19;;;1.32;100.00
596;BME280;19946;49.306;11.350;2023-04-09T23:18:09;97025.75;;;1.37;100.00
596;BME280;19946;49.306;11.350;2023-04-09T23:21:10;96990.78;;;0.97;100.00
596;BME280;19946;49.306;11.350;2023-04-09T23:24:11;97004.00;;;1.07;100.00
596;BME280;19946;49.306;11.350;2023-04-09T23:27:14;97019.16;;;1.10;100.00
596;BME280;19946;49.306;11.350;2023-04-09T23:33:35;97112.44;;;1.62;100.00
596;BME280;19946;49.306;11.350;2023-04-09T23:36:51;97045.78;;;1.03;100.00
596;BME280;19946;49.306;11.350;2023-04-09T23:43:16;96990.41;;;0.38;100.00
596;BME280;19946;49.306;11.350;2023-04-09T23:46:17;96997.91;;;0.43;100.00
596;BME280;19946;49.306;11.350;2023-04-09T23:49:17;97001.44;;;0.39;100.00
596;BME280;19946;49.306;11.350;2023-04-09T23:52:25;97095.03;;;1.05;100.00
596;BME280;19946;49.306;11.350;2023-04-09T23:55:25;96985.22;;;0.41;100.00
596;BME280;19946;49.306;11.350;2023-04-09T23:58:27;97094.78;;;1.11;100.00
